createdAt,value
2023-04-12T00:02:15.797Z,5.10
2023-04-12T00:04:42.172Z,5.13
2023-04-12T00:07:08.643Z,5.18
2023-04-12T00:09:34.880Z,4.80
2023-04-12T00:12:01.083Z,4.54
2023-04-12T00:14:27.306Z,4.80
2023-04-12T00:16:53.517Z,4.40
2023-04-12T00:19:19.735Z,4.28
2023-04-12T00:21:45.957Z,4.11
2023-04-12T00:24:12.485Z,4.10
2023-04-12T00:26:38.677Z,4.09
2023-04-12T00:29:04.891Z,4.01
2023-04-12T00:31:31.145Z,4.04
2023-04-12T00:33:57.532Z,4.01
2023-04-12T00:36:23.934Z,4.02
2023-04-12T00:38:50.158Z,4.08
2023-04-12T00:41:17.041Z,4.09
2023-04-12T00:43:43.261Z,3.98
2023-04-12T00:46:09.572Z,3.90
2023-04-12T00:48:36.432Z,3.89
2023-04-12T00:51:02.641Z,3.96
2023-04-12T00:53:28.858Z,3.97
2023-04-12T00:55:55.070Z,3.98
2023-04-12T00:58:22.454Z,3.97
2023-04-12T01:00:48.684Z,3.96
2023-04-12T01:03:15.145Z,3.95
2023-04-12T01:05:43.518Z,4.04
2023-04-12T01:08:09.681Z,4.12
2023-04-12T01:10:41.634Z,4.15
2023-04-12T01:13:17.900Z,4.18
2023-04-12T01:15:50.899Z,4.11
2023-04-12T01:18:19.217Z,4.11
2023-04-12T01:20:50.555Z,4.06
2023-04-12T01:23:28.284Z,4.02
2023-04-12T01:26:09.959Z,3.97
2023-04-12T01:28:37.912Z,3.87
2023-04-12T01:31:04.216Z,3.86
2023-04-12T01:33:30.426Z,3.79
2023-04-12T01:35:57.956Z,3.84
2023-04-12T01:38:24.201Z,3.88
2023-04-12T01:40:50.423Z,3.86
2023-04-12T01:43:16.638Z,3.90
2023-04-12T01:45:42.921Z,3.84
2023-04-12T01:48:09.853Z,3.74
2023-04-12T01:50:39.048Z,3.67
2023-04-12T01:53:10.842Z,3.64
2023-04-12T01:55:37.385Z,3.71
2023-04-12T01:58:03.589Z,3.69
2023-04-12T02:00:29.808Z,3.65
2023-04-12T02:02:56.076Z,3.60
2023-04-12T02:05:22.336Z,3.61
2023-04-12T02:07:48.579Z,3.55
2023-04-12T02:10:14.872Z,3.49
2023-04-12T02:12:41.398Z,3.39
2023-04-12T02:15:07.890Z,3.45
2023-04-12T02:17:34.412Z,3.40
2023-04-12T02:20:00.646Z,3.38
2023-04-12T02:22:26.856Z,3.31
2023-04-12T02:24:53.068Z,3.33
2023-04-12T02:27:19.269Z,3.33
2023-04-12T02:29:45.474Z,3.31
2023-04-12T02:32:11.682Z,3.26
2023-04-12T02:34:37.900Z,3.23
2023-04-12T02:37:04.114Z,3.23
2023-04-12T02:39:30.352Z,3.20
2023-04-12T02:41:56.552Z,3.15
2023-04-12T02:44:22.766Z,3.10
2023-04-12T02:46:48.971Z,3.07
2023-04-12T02:49:15.202Z,3.03
2023-04-12T02:51:41.782Z,2.99
2023-04-12T02:54:08.010Z,3.07
2023-04-12T02:56:37.379Z,2.98
2023-04-12T02:59:03.603Z,2.96
2023-04-12T03:01:29.886Z,3.09
2023-04-12T03:03:56.404Z,3.18
2023-04-12T03:06:22.882Z,3.17
2023-04-12T03:08:49.087Z,3.09
2023-04-12T03:11:15.298Z,2.97
2023-04-12T03:13:41.520Z,3.14
2023-04-12T03:16:20.934Z,3.14
2023-04-12T03:18:47.173Z,3.11
2023-04-12T03:21:13.377Z,3.14
2023-04-12T03:23:39.603Z,3.12
2023-04-12T03:26:05.964Z,3.14
2023-04-12T03:28:32.168Z,3.11
2023-04-12T03:30:58.396Z,3.09
2023-04-12T03:33:24.598Z,3.01
2023-04-12T03:35:50.831Z,2.94
2023-04-12T03:38:17.104Z,3.00
2023-04-12T03:40:43.319Z,3.04
2023-04-12T03:43:09.540Z,3.05
2023-04-12T03:45:35.729Z,2.99
2023-04-12T03:48:01.961Z,2.97
2023-04-12T03:50:28.170Z,2.85
2023-04-12T03:52:54.500Z,2.92
2023-04-12T03:55:20.695Z,2.86
2023-04-12T03:57:46.907Z,2.86
2023-04-12T04:00:14.964Z,2.90
2023-04-12T04:02:41.274Z,2.95
2023-04-12T04:05:07.691Z,2.97
2023-04-12T04:07:33.913Z,2.94
2023-04-12T04:10:00.186Z,2.98
2023-04-12T04:12:26.433Z,2.94
2023-04-12T04:14:52.626Z,2.90
2023-04-12T04:17:18.911Z,2.87
2023-04-12T04:19:45.161Z,2.93
2023-04-12T04:22:11.369Z,3.00
2023-04-12T04:24:37.570Z,3.02
2023-04-12T04:27:03.816Z,3.04
2023-04-12T04:29:30.262Z,2.99
2023-04-12T04:31:56.501Z,2.99
2023-04-12T04:34:22.744Z,3.11
2023-04-12T04:36:48.951Z,3.14
2023-04-12T04:39:15.168Z,3.28
2023-04-12T04:41:41.729Z,3.40
2023-04-12T04:44:08.187Z,3.48
2023-04-12T04:46:34.386Z,3.71
2023-04-12T04:49:00.831Z,3.74
2023-04-12T04:51:27.046Z,3.92
2023-04-12T04:53:53.272Z,4.22
2023-04-12T04:56:19.471Z,4.40
2023-04-12T04:58:45.670Z,4.79
2023-04-12T05:01:11.904Z,5.45
2023-04-12T05:03:38.225Z,5.68
2023-04-12T05:06:04.506Z,5.99
2023-04-12T05:08:30.720Z,6.83
2023-04-12T05:10:56.946Z,7.43
2023-04-12T05:13:23.168Z,8.16
2023-04-12T05:15:49.589Z,8.96
2023-04-12T05:18:15.813Z,9.31
2023-04-12T05:20:42.018Z,9.85
2023-04-12T05:23:08.231Z,10.03
2023-04-12T05:25:34.439Z,9.93
2023-04-12T05:28:00.642Z,9.06
2023-04-12T05:30:26.894Z,8.48
2023-04-12T05:32:53.123Z,8.64
2023-04-12T05:35:19.481Z,8.87
2023-04-12T05:37:45.807Z,8.81
2023-04-12T05:40:12.159Z,8.85
2023-04-12T05:42:38.403Z,8.70
2023-04-12T05:45:05.003Z,9.00
2023-04-12T05:47:31.265Z,9.06
2023-04-12T05:49:57.586Z,8.91
2023-04-12T05:52:23.803Z,8.43
2023-04-12T05:54:50.015Z,8.23
2023-04-12T05:57:16.207Z,8.03
2023-04-12T05:59:42.426Z,7.98
2023-04-12T06:02:08.758Z,8.23
2023-04-12T06:04:48.853Z,8.48
2023-04-12T06:07:16.741Z,8.82
2023-04-12T06:09:42.963Z,9.25
2023-04-12T06:12:09.345Z,9.65
2023-04-12T06:14:35.611Z,10.20
2023-04-12T06:17:01.817Z,11.03
2023-04-12T06:19:31.243Z,10.82
2023-04-12T06:21:57.457Z,10.97
2023-04-12T06:24:23.696Z,11.37
2023-04-12T06:26:52.365Z,11.17
2023-04-12T06:29:18.604Z,10.61
2023-04-12T06:31:45.079Z,10.03
2023-04-12T06:34:36.725Z,10.52
2023-04-12T06:37:02.969Z,11.57
2023-04-12T06:39:29.551Z,11.86
2023-04-12T06:42:08.054Z,12.31
2023-04-12T06:44:34.317Z,11.73
2023-04-12T06:47:06.966Z,12.39
2023-04-12T06:49:35.755Z,12.96
2023-04-12T06:52:06.806Z,11.92
2023-04-12T06:54:33.333Z,11.43
2023-04-12T06:56:59.628Z,11.42
2023-04-12T06:59:27.723Z,10.94
2023-04-12T07:01:54.064Z,11.58
2023-04-12T07:04:26.241Z,12.11
2023-04-12T07:06:53.647Z,12.41
2023-04-12T07:09:28.964Z,11.98
2023-04-12T07:12:13.756Z,11.86
2023-04-12T07:17:37.270Z,12.76
2023-04-12T07:20:15.533Z,12.82
2023-04-12T07:22:56.769Z,12.92
2023-04-12T07:25:28.166Z,12.90
2023-04-12T07:27:54.629Z,11.77
2023-04-12T07:30:30.577Z,11.27
2023-04-12T07:33:08.685Z,12.19
2023-04-12T07:35:45.771Z,12.19
2023-04-12T07:38:25.880Z,12.03
2023-04-12T07:43:48.975Z,12.10
2023-04-12T07:46:17.780Z,11.85
2023-04-12T07:48:51.373Z,11.96
2023-04-12T07:51:20.671Z,12.46
2023-04-12T07:53:50.215Z,12.12
2023-04-12T07:56:16.508Z,12.40
2023-04-12T07:58:42.955Z,12.77
2023-04-12T08:01:13.638Z,12.86
2023-04-12T08:03:39.996Z,12.99
2023-04-12T08:06:06.538Z,13.52
2023-04-12T08:08:32.831Z,13.24
2023-04-12T08:10:59.311Z,12.61
2023-04-12T08:13:25.519Z,12.31
2023-04-12T08:15:53.599Z,12.31
2023-04-12T08:18:19.875Z,13.31
2023-04-12T08:20:46.098Z,13.39
2023-04-12T08:23:12.318Z,13.44
2023-04-12T08:25:38.619Z,12.37
2023-04-12T08:28:04.897Z,12.50
2023-04-12T08:30:31.188Z,12.25
2023-04-12T08:32:57.475Z,12.84
2023-04-12T08:35:23.756Z,13.42
2023-04-12T08:37:50.044Z,13.70
2023-04-12T08:40:16.264Z,13.06
2023-04-12T08:42:42.473Z,13.35
2023-04-12T08:45:09.383Z,13.34
2023-04-12T08:47:37.362Z,12.94
2023-04-12T08:50:03.638Z,13.10
2023-04-12T08:52:30.295Z,13.99
2023-04-12T08:54:56.530Z,13.63
2023-04-12T08:57:22.813Z,14.01
2023-04-12T08:59:49.114Z,14.10
2023-04-12T09:02:15.472Z,14.22
2023-04-12T09:04:48.653Z,13.82
2023-04-12T09:07:15.161Z,14.05
2023-04-12T09:09:42.056Z,14.50
2023-04-12T09:12:08.662Z,14.44
2023-04-12T09:14:34.889Z,14.47
2023-04-12T09:17:01.216Z,14.65
2023-04-12T09:19:31.295Z,14.52
2023-04-12T09:21:57.535Z,14.49
2023-04-12T09:24:23.787Z,14.58
2023-04-12T09:27:05.754Z,14.67
2023-04-12T09:29:32.493Z,14.72
2023-04-12T09:32:02.649Z,14.47
2023-04-12T09:34:29.495Z,14.91
2023-04-12T09:36:55.712Z,14.46
2023-04-12T09:39:31.723Z,13.89
2023-04-12T09:42:04.774Z,13.81
2023-04-12T09:44:31.039Z,14.18
2023-04-12T09:46:57.288Z,14.49
2023-04-12T09:49:39.093Z,14.71
2023-04-12T09:52:08.596Z,13.78
2023-04-12T09:54:44.453Z,14.56
2023-04-12T09:57:10.786Z,14.97
2023-04-12T09:59:37.596Z,14.98
2023-04-12T10:02:08.129Z,14.63
2023-04-12T10:04:35.435Z,14.64
2023-04-12T10:07:01.711Z,14.58
2023-04-12T10:09:27.943Z,14.89
2023-04-12T10:11:54.156Z,15.16
2023-04-12T10:14:20.739Z,15.43
2023-04-12T10:16:47.510Z,15.34
2023-04-12T10:19:13.806Z,15.47
2023-04-12T10:21:40.047Z,15.28
2023-04-12T10:24:06.275Z,15.04
2023-04-12T10:26:32.497Z,15.07
2023-04-12T10:29:17.658Z,15.06
2023-04-12T10:31:43.919Z,14.35
2023-04-12T10:34:10.174Z,13.97
2023-04-12T10:37:12.013Z,14.09
2023-04-12T10:39:41.385Z,13.75
2023-04-12T10:42:17.431Z,13.57
2023-04-12T10:44:43.655Z,13.65
2023-04-12T10:47:09.990Z,13.45
2023-04-12T10:49:36.256Z,13.39
2023-04-12T10:52:02.506Z,13.53
2023-04-12T10:54:28.772Z,14.03
2023-04-12T10:56:55.030Z,14.13
2023-04-12T10:59:21.259Z,13.71
2023-04-12T11:02:06.187Z,13.82
2023-04-12T11:04:32.585Z,13.74
2023-04-12T11:06:59.673Z,13.69
2023-04-12T11:09:44.267Z,13.65
2023-04-12T11:12:11.385Z,14.13
2023-04-12T11:14:43.344Z,14.43
2023-04-12T11:17:11.707Z,14.94
2023-04-12T11:19:44.103Z,14.68
2023-04-12T11:22:11.092Z,15.27
2023-04-12T11:24:37.786Z,14.61
2023-04-12T11:27:04.272Z,14.03
2023-04-12T11:29:30.482Z,13.98
2023-04-12T11:31:56.708Z,14.10
2023-04-12T11:34:22.936Z,14.24
2023-04-12T11:36:52.470Z,14.18
2023-04-12T11:39:18.690Z,14.58
2023-04-12T11:41:45.104Z,14.86
2023-04-12T11:44:11.318Z,14.84
2023-04-12T11:46:37.558Z,14.12
2023-04-12T11:49:03.783Z,13.89
2023-04-12T11:51:32.546Z,13.73
2023-04-12T11:53:59.290Z,13.56
2023-04-12T11:56:25.925Z,13.58
2023-04-12T11:58:52.147Z,13.67
2023-04-12T12:01:18.834Z,13.90
2023-04-12T12:03:45.187Z,13.67
2023-04-12T12:06:11.991Z,13.81
2023-04-12T12:08:38.376Z,14.24
2023-04-12T12:11:08.424Z,13.75
2023-04-12T12:13:45.962Z,13.70
2023-04-12T12:16:12.272Z,13.27
2023-04-12T12:18:44.994Z,13.21
2023-04-12T12:21:11.928Z,13.27
2023-04-12T12:23:38.152Z,13.29
2023-04-12T12:26:17.850Z,13.36
2023-04-12T12:28:48.455Z,13.11
2023-04-12T12:31:17.902Z,12.79
2023-04-12T12:33:47.180Z,12.42
2023-04-12T12:36:13.850Z,12.49
2023-04-12T12:38:40.379Z,12.61
2023-04-12T12:41:19.160Z,12.63
2023-04-12T12:43:45.953Z,12.65
2023-04-12T12:46:12.177Z,12.56
2023-04-12T12:48:41.606Z,12.56
2023-04-12T12:51:08.154Z,12.68
2023-04-12T12:53:34.826Z,12.70
2023-04-12T12:56:01.040Z,12.91
2023-04-12T12:58:27.252Z,13.01
2023-04-12T13:00:53.485Z,12.98
2023-04-12T13:03:19.967Z,13.06
2023-04-12T13:05:46.377Z,12.87
2023-04-12T13:08:12.578Z,12.86
2023-04-12T13:10:38.789Z,12.79
2023-04-12T13:13:05.024Z,12.74
2023-04-12T13:15:31.246Z,12.64
2023-04-12T13:17:57.530Z,12.43
2023-04-12T13:20:23.805Z,12.22
2023-04-12T13:22:50.328Z,11.90
2023-04-12T13:25:16.585Z,12.03
2023-04-12T13:27:42.795Z,11.86
2023-04-12T13:30:09.104Z,11.79
2023-04-12T13:32:35.332Z,11.84
2023-04-12T13:35:01.604Z,11.77
2023-04-12T13:37:27.844Z,11.55
2023-04-12T13:39:54.059Z,11.56
2023-04-12T13:42:20.308Z,11.39
2023-04-12T13:44:46.533Z,11.37
2023-04-12T13:47:12.737Z,11.31
2023-04-12T13:49:38.957Z,11.45
2023-04-12T13:52:05.189Z,11.50
2023-04-12T13:54:31.404Z,11.58
2023-04-12T13:56:57.624Z,11.43
2023-04-12T13:59:24.297Z,11.50
2023-04-12T14:01:50.613Z,11.52
2023-04-12T14:04:16.927Z,11.42
2023-04-12T14:06:43.165Z,11.43
2023-04-12T14:09:09.373Z,11.47
2023-04-12T14:11:44.762Z,11.39
2023-04-12T14:14:10.985Z,11.31
2023-04-12T14:16:37.234Z,11.31
2023-04-12T14:19:03.528Z,11.26
2023-04-12T14:21:29.736Z,11.18
2023-04-12T14:23:56.184Z,11.23
2023-04-12T14:26:22.598Z,11.14
2023-04-12T14:28:48.804Z,11.11
2023-04-12T14:31:15.116Z,11.11
2023-04-12T14:33:41.497Z,11.11
2023-04-12T14:36:07.851Z,11.08
2023-04-12T14:38:34.366Z,10.95
2023-04-12T14:41:00.842Z,10.76
2023-04-12T14:43:27.443Z,10.58
2023-04-12T14:45:53.755Z,10.55
2023-04-12T14:48:20.301Z,10.55
2023-04-12T14:50:46.500Z,10.51
2023-04-12T14:53:12.709Z,10.48
2023-04-12T14:55:39.277Z,10.64
2023-04-12T14:58:05.528Z,10.75
2023-04-12T15:00:33.086Z,10.59
2023-04-12T15:02:59.620Z,10.67
2023-04-12T15:05:26.487Z,10.65
2023-04-12T15:07:53.079Z,10.57
2023-04-12T15:10:19.576Z,10.53
2023-04-12T15:12:45.939Z,10.54
2023-04-12T15:15:12.350Z,10.45
2023-04-12T15:17:38.717Z,10.39
2023-04-12T15:20:05.257Z,10.35
2023-04-12T15:22:33.895Z,10.19
2023-04-12T15:25:00.117Z,10.20
2023-04-12T15:27:26.385Z,10.23
2023-04-12T15:29:52.604Z,10.25
2023-04-12T15:32:18.886Z,10.17
2023-04-12T15:34:45.130Z,10.11
2023-04-12T15:37:11.353Z,9.89
2023-04-12T15:39:37.569Z,9.98
2023-04-12T15:42:04.334Z,9.93
2023-04-12T15:44:30.540Z,9.87
2023-04-12T15:47:10.472Z,9.75
2023-04-12T15:49:38.897Z,9.79
2023-04-12T15:52:05.106Z,9.77
2023-04-12T15:54:31.316Z,9.71
2023-04-12T15:56:57.523Z,9.62
2023-04-12T15:59:23.735Z,9.60
2023-04-12T16:01:50.070Z,9.57
2023-04-12T16:04:16.554Z,9.59
2023-04-12T16:06:42.879Z,9.55
2023-04-12T16:09:09.148Z,9.47
2023-04-12T16:11:35.380Z,9.47
2023-04-12T16:14:01.602Z,9.41
2023-04-12T16:16:27.843Z,9.50
2023-04-12T16:18:54.104Z,9.45
2023-04-12T16:21:20.445Z,9.48
2023-04-12T16:23:47.063Z,9.38
2023-04-12T16:26:13.726Z,9.43
2023-04-12T16:28:39.937Z,9.48
2023-04-12T16:31:06.456Z,9.50
2023-04-12T16:33:32.766Z,9.47
2023-04-12T16:35:59.023Z,9.42
2023-04-12T16:38:25.311Z,9.39
2023-04-12T16:40:51.510Z,9.23
2023-04-12T16:43:17.797Z,9.23
2023-04-12T16:45:44.048Z,9.35
2023-04-12T16:48:10.309Z,9.33
2023-04-12T16:50:36.540Z,9.40
2023-04-12T16:53:02.805Z,9.44
2023-04-12T16:55:29.017Z,9.41
2023-04-12T16:57:55.240Z,9.37
2023-04-12T17:00:21.479Z,9.45
2023-04-12T17:02:51.507Z,9.37
2023-04-12T17:05:17.912Z,9.37
2023-04-12T17:07:47.101Z,9.26
2023-04-12T17:10:14.482Z,9.20
2023-04-12T17:12:40.701Z,9.17
2023-04-12T17:15:07.091Z,9.14
2023-04-12T17:17:33.322Z,9.23
2023-04-12T17:19:59.559Z,9.22
2023-04-12T17:22:25.855Z,9.14
2023-04-12T17:24:52.169Z,9.26
2023-04-12T17:27:18.432Z,9.23
2023-04-12T17:29:44.788Z,9.34
2023-04-12T17:32:11.262Z,9.20
2023-04-12T17:34:37.681Z,9.21
2023-04-12T17:37:04.122Z,9.19
2023-04-12T17:39:30.637Z,9.17
2023-04-12T17:41:56.984Z,9.20
2023-04-12T17:44:23.626Z,9.10
2023-04-12T17:46:49.932Z,9.17
2023-04-12T17:49:16.256Z,9.12
2023-04-12T17:51:58.686Z,9.10
2023-04-12T17:54:29.178Z,9.03
2023-04-12T17:56:55.462Z,8.98
2023-04-12T17:59:21.926Z,9.15
2023-04-12T18:01:48.324Z,9.22
2023-04-12T18:04:14.743Z,9.21
2023-04-12T18:06:40.992Z,9.24
2023-04-12T18:09:08.668Z,9.27
2023-04-12T18:11:34.864Z,9.12
2023-04-12T18:14:01.116Z,9.10
2023-04-12T18:16:27.453Z,9.09
2023-04-12T18:18:53.803Z,9.02
2023-04-12T18:21:20.089Z,8.97
2023-04-12T18:23:46.323Z,9.03
2023-04-12T18:26:12.547Z,8.97
2023-04-12T18:28:40.747Z,9.05
2023-04-12T18:31:07.145Z,8.93
2023-04-12T18:33:33.410Z,9.10
2023-04-12T18:35:59.628Z,9.06
2023-04-12T18:38:25.889Z,9.00
2023-04-12T18:40:52.149Z,8.97
2023-04-12T18:43:18.481Z,8.99
2023-04-12T18:45:44.718Z,9.12
2023-04-12T18:48:11.013Z,9.12
2023-04-12T18:50:37.292Z,9.01
2023-04-12T18:53:03.531Z,8.99
2023-04-12T18:55:29.833Z,8.95
2023-04-12T18:57:56.083Z,9.00
2023-04-12T19:00:22.318Z,8.97
2023-04-12T19:02:48.673Z,8.98
2023-04-12T19:05:15.008Z,8.94
2023-04-12T19:07:41.260Z,8.90
2023-04-12T19:10:07.682Z,9.05
2023-04-12T19:12:33.912Z,9.07
2023-04-12T19:15:00.181Z,8.96
2023-04-12T19:17:26.444Z,8.93
2023-04-12T19:19:55.810Z,8.94
2023-04-12T19:22:22.012Z,9.02
2023-04-12T19:24:48.422Z,8.93
2023-04-12T19:27:14.675Z,8.98
2023-04-12T19:29:40.911Z,8.99
2023-04-12T19:32:07.195Z,8.94
2023-04-12T19:34:33.525Z,8.94
2023-04-12T19:36:59.961Z,8.87
2023-04-12T19:39:26.257Z,8.93
2023-04-12T19:41:52.754Z,8.94
2023-04-12T19:44:19.605Z,8.96
2023-04-12T19:46:45.802Z,8.92
2023-04-12T19:49:12.032Z,8.95
2023-04-12T19:51:38.242Z,8.90
2023-04-12T19:54:04.475Z,8.86
2023-04-12T19:56:30.754Z,8.93
2023-04-12T19:58:57.237Z,8.89
2023-04-12T20:01:23.678Z,8.85
2023-04-12T20:03:49.934Z,8.89
2023-04-12T20:06:16.256Z,8.97
2023-04-12T20:08:42.546Z,9.00
2023-04-12T20:11:08.739Z,9.01
2023-04-12T20:13:34.940Z,8.98
2023-04-12T20:16:01.235Z,9.05
2023-04-12T20:18:27.465Z,8.99
2023-04-12T20:20:53.689Z,8.96
2023-04-12T20:23:19.931Z,8.91
2023-04-12T20:25:46.157Z,8.92
2023-04-12T20:28:12.364Z,8.95
2023-04-12T20:30:38.637Z,9.00
2023-04-12T20:33:05.034Z,9.01
2023-04-12T20:35:31.669Z,9.05
2023-04-12T20:37:57.908Z,8.99
2023-04-12T20:40:24.145Z,9.00
2023-04-12T20:42:50.359Z,8.99
2023-04-12T20:45:16.573Z,9.03
2023-04-12T20:47:42.786Z,9.05
2023-04-12T20:50:09.192Z,9.05
2023-04-12T20:52:35.394Z,9.00
2023-04-12T20:55:01.641Z,9.00
2023-04-12T20:57:27.954Z,8.96
2023-04-12T20:59:54.195Z,8.98
2023-04-12T21:02:20.542Z,9.02
2023-04-12T21:04:46.846Z,8.98
2023-04-12T21:07:13.097Z,8.96
2023-04-12T21:09:39.312Z,8.96
2023-04-12T21:12:05.568Z,8.95
2023-04-12T21:14:31.938Z,9.00
2023-04-12T21:16:58.157Z,8.97
2023-04-12T21:19:24.397Z,8.95
2023-04-12T21:21:50.621Z,8.92
2023-04-12T21:24:16.841Z,8.93
2023-04-12T21:26:43.058Z,8.96
2023-04-12T21:29:09.286Z,8.90
2023-04-12T21:31:35.580Z,8.96
2023-04-12T21:34:01.987Z,9.05
2023-04-12T21:36:28.299Z,9.03
2023-04-12T21:38:54.795Z,9.05
2023-04-12T21:41:21.010Z,9.01
2023-04-12T21:43:47.211Z,9.00
2023-04-12T21:46:13.470Z,9.01
2023-04-12T21:48:39.696Z,8.98
2023-04-12T21:51:06.101Z,9.02
2023-04-12T21:53:32.306Z,8.98
2023-04-12T21:55:58.523Z,8.99
2023-04-12T21:58:24.723Z,8.99
2023-04-12T22:00:50.971Z,8.96
2023-04-12T22:03:17.367Z,8.91
2023-04-12T22:05:48.560Z,8.89
2023-04-12T22:08:20.344Z,8.90
2023-04-12T22:10:47.214Z,8.97
2023-04-12T22:13:13.420Z,8.92
2023-04-12T22:15:39.627Z,8.93
2023-04-12T22:18:05.879Z,8.96
2023-04-12T22:20:32.141Z,8.97
2023-04-12T22:22:58.349Z,8.93
2023-04-12T22:25:24.595Z,8.81
2023-04-12T22:27:50.793Z,8.83
2023-04-12T22:30:17.005Z,8.86
2023-04-12T22:32:43.242Z,8.88
2023-04-12T22:35:09.535Z,8.85
2023-04-12T22:37:36.113Z,8.85
2023-04-12T22:40:02.431Z,8.80
2023-04-12T22:42:28.841Z,8.83
2023-04-12T22:44:55.426Z,8.82
2023-04-12T22:47:21.644Z,8.80
2023-04-12T22:49:47.895Z,8.78
2023-04-12T22:52:14.095Z,8.76
2023-04-12T22:54:40.391Z,8.74
2023-04-12T22:57:06.654Z,8.71
2023-04-12T22:59:32.898Z,8.70
2023-04-12T23:01:59.168Z,8.69
2023-04-12T23:04:25.471Z,8.67
2023-04-12T23:06:52.486Z,8.66
2023-04-12T23:09:18.697Z,8.69
2023-04-12T23:11:44.894Z,8.70
2023-04-12T23:14:11.096Z,8.69
2023-04-12T23:16:39.537Z,8.69
2023-04-12T23:19:05.736Z,8.66
2023-04-12T23:21:32.216Z,8.67
2023-04-12T23:23:58.648Z,8.70
2023-04-12T23:26:25.087Z,8.69
2023-04-12T23:28:51.283Z,8.67
2023-04-12T23:31:17.581Z,8.65
2023-04-12T23:33:44.453Z,8.63
2023-04-12T23:36:10.923Z,8.64
2023-04-12T23:38:37.264Z,8.61
2023-04-12T23:41:03.775Z,8.55
2023-04-12T23:43:30.172Z,8.52
2023-04-12T23:45:56.541Z,8.41
2023-04-12T23:48:22.906Z,8.43
2023-04-12T23:50:49.250Z,8.38
2023-04-12T23:53:15.536Z,8.32
2023-04-12T23:55:41.845Z,8.34
2023-04-12T23:58:08.144Z,8.32
